Springfield, IL (62776)

2:03 PM CDT on July 02, 2015 (GMT -0500)
Springfield West Side | | Change Station
CLOSE
Current Station
Personal Weather Station
Location: Springfield, IL
Elevation: 604 ft
Nearby Weather Stations

Elev 604 ft 39.79 °N, 89.69 °W | Updated 21 seconds ago

Mostly Cloudy
Mostly Cloudy
73.0 °F
Feels Like 76 °F
N
0.9
Wind Variable Wind from NE
Gusts 1.8 mph

Today
High -- | Low -- °F
--% Chance of Precip.
Yesterday
High -- | Low -- °F
Precip. -- in
5:34 AM 8:30 PM
Full, 99% visible
Pressure 29.94 in
Visibility 10.0 miles
Clouds Clear
Heat Index 76 °F
Dew Point 59 °F
Humidity 61%
Rainfall 0.02 in
Snow Depth Not available.
UV 11 out of 12
Pollen .60 out of 12
Air Quality Not available.
Flu Activity Not available.
METAR KSPI 021852Z 02010KT 10SM CLR 23/16 A2995 RMK AO2 SLP137 T02280156

More Conditions Fewer Conditions

Pressure 29.94 in
Visibility 10.0 miles
Clouds Clear
Heat Index 76 °F
Dew Point 59 °F
Humidity 61%
Rainfall 0.02 in
Snow Depth Not available.
UV 11 out of 12
Pollen .60 out of 12
Air Quality Not available.
Flu Activity Not available.
METAR KSPI 021852Z 02010KT 10SM CLR 23/16 A2995 RMK AO2 SLP137 T02280156

More Conditions Fewer Conditions

10-Day Weather Forecast

×

Almanac

Astronomy

Jul. 02, 2015 Rise Set
Actual Time
Civil Twilight
Nautical Twilight
Astronomical Twilight
Moon
Length of Visible Light
Length of Day
Tomorrow will be .
, % of the Moon is Illuminated

Today's Extremes

State Highs State Lows

Community

WunderPhotos

Upload Photos

1,834,517 photos uploaded!

WunderBlogs® & News

Nearby

Air Quality

  Air Quality AQ Index Pollutant
Not available.

Snow Depth

Station Depth Elevation

Earthquake Activity

City Distance Mag. Time & Date
Minimum magnitude displayed is 2.5.

Coastal Water Temperatures

Place Temperature

Stations

Nearby Weather Stations

Station Location Temp. Windchill Dew Point Humidity Wind Precip. Elev Updated Type